sensor_id;sensor_type;location;lat;lon;timestamp;P1;durP1;ratioP1;P2;durP2;ratioP2
74920;SDS011;63483;47.384;8.860;2022-11-13T00:03:46;3.85;;;3.03;;
74920;SDS011;63483;47.384;8.860;2022-11-13T00:06:12;3.88;;;3.20;;
74920;SDS011;63483;47.384;8.860;2022-11-13T00:08:39;4.47;;;3.63;;
74920;SDS011;63483;47.384;8.860;2022-11-13T00:11:06;4.97;;;3.13;;
74920;SDS011;63483;47.384;8.860;2022-11-13T00:13:36;3.70;;;2.97;;
74920;SDS011;63483;47.384;8.860;2022-11-13T00:16:03;4.35;;;3.13;;
74920;SDS011;63483;47.384;8.860;2022-11-13T00:18:32;4.95;;;2.88;;
74920;SDS011;63483;47.384;8.860;2022-11-13T00:21:06;3.73;;;2.63;;
74920;SDS011;63483;47.384;8.860;2022-11-13T00:23:32;3.63;;;2.90;;
74920;SDS011;63483;47.384;8.860;2022-11-13T00:26:02;4.00;;;3.55;;
74920;SDS011;63483;47.384;8.860;2022-11-13T00:28:31;3.13;;;2.50;;
74920;SDS011;63483;47.384;8.860;2022-11-13T00:30:57;3.50;;;2.50;;
74920;SDS011;63483;47.384;8.860;2022-11-13T00:33:24;3.55;;;2.70;;
74920;SDS011;63483;47.384;8.860;2022-11-13T00:35:49;4.57;;;3.20;;
74920;SDS011;63483;47.384;8.860;2022-11-13T00:38:14;4.33;;;2.97;;
74920;SDS011;63483;47.384;8.860;2022-11-13T00:40:39;4.47;;;2.93;;
74920;SDS011;63483;47.384;8.860;2022-11-13T00:43:05;4.10;;;3.50;;
74920;SDS011;63483;47.384;8.860;2022-11-13T00:45:30;4.60;;;3.57;;
74920;SDS011;63483;47.384;8.860;2022-11-13T00:47:55;4.37;;;3.43;;
74920;SDS011;63483;47.384;8.860;2022-11-13T00:50:21;5.13;;;3.70;;
74920;SDS011;63483;47.384;8.860;2022-11-13T00:52:46;4.63;;;3.27;;
74920;SDS011;63483;47.384;8.860;2022-11-13T00:55:11;4.47;;;3.13;;
74920;SDS011;63483;47.384;8.860;2022-11-13T00:57:37;4.70;;;3.20;;
74920;SDS011;63483;47.384;8.860;2022-11-13T01:00:02;3.83;;;2.70;;
74920;SDS011;63483;47.384;8.860;2022-11-13T01:02:28;4.63;;;3.33;;
74920;SDS011;63483;47.384;8.860;2022-11-13T01:04:54;4.40;;;3.33;;
74920;SDS011;63483;47.384;8.860;2022-11-13T01:07:19;4.37;;;3.70;;
74920;SDS011;63483;47.384;8.860;2022-11-13T01:09:48;4.53;;;3.50;;
74920;SDS011;63483;47.384;8.860;2022-11-13T01:12:14;4.18;;;3.17;;
74920;SDS011;63483;47.384;8.860;2022-11-13T01:14:39;3.33;;;2.57;;
74920;SDS011;63483;47.384;8.860;2022-11-13T01:17:05;3.47;;;2.83;;
74920;SDS011;63483;47.384;8.860;2022-11-13T01:19:30;3.20;;;2.47;;
74920;SDS011;63483;47.384;8.860;2022-11-13T01:21:55;2.87;;;2.50;;
74920;SDS011;63483;47.384;8.860;2022-11-13T01:24:21;3.30;;;2.63;;
74920;SDS011;63483;47.384;8.860;2022-11-13T01:26:46;3.67;;;2.60;;
74920;SDS011;63483;47.384;8.860;2022-11-13T01:29:11;3.25;;;2.63;;
74920;SDS011;63483;47.384;8.860;2022-11-13T01:31:37;3.67;;;3.00;;
74920;SDS011;63483;47.384;8.860;2022-11-13T01:34:02;3.60;;;2.80;;
74920;SDS011;63483;47.384;8.860;2022-11-13T01:36:28;6.07;;;3.47;;
74920;SDS011;63483;47.384;8.860;2022-11-13T01:38:53;4.43;;;3.00;;
74920;SDS011;63483;47.384;8.860;2022-11-13T01:41:26;4.83;;;3.47;;
74920;SDS011;63483;47.384;8.860;2022-11-13T01:43:55;4.45;;;3.08;;
74920;SDS011;63483;47.384;8.860;2022-11-13T01:46:28;4.22;;;3.30;;
74920;SDS011;63483;47.384;8.860;2022-11-13T01:51:35;3.90;;;2.70;;
74920;SDS011;63483;47.384;8.860;2022-11-13T01:54:10;4.07;;;2.40;;
74920;SDS011;63483;47.384;8.860;2022-11-13T01:56:53;4.10;;;3.13;;
74920;SDS011;63483;47.384;8.860;2022-11-13T01:59:22;3.97;;;3.10;;
74920;SDS011;63483;47.384;8.860;2022-11-13T02:01:51;4.20;;;2.85;;
74920;SDS011;63483;47.384;8.860;2022-11-13T02:04:17;4.10;;;2.92;;
74920;SDS011;63483;47.384;8.860;2022-11-13T02:06:53;3.07;;;2.17;;
74920;SDS011;63483;47.384;8.860;2022-11-13T02:09:23;3.22;;;2.65;;
74920;SDS011;63483;47.384;8.860;2022-11-13T02:11:51;3.23;;;2.80;;
74920;SDS011;63483;47.384;8.860;2022-11-13T02:14:17;3.35;;;2.65;;
74920;SDS011;63483;47.384;8.860;2022-11-13T02:16:46;4.13;;;3.08;;
74920;SDS011;63483;47.384;8.860;2022-11-13T02:19:16;3.13;;;2.38;;
74920;SDS011;63483;47.384;8.860;2022-11-13T02:24:22;3.03;;;2.50;;
74920;SDS011;63483;47.384;8.860;2022-11-13T02:26:51;3.67;;;2.75;;
74920;SDS011;63483;47.384;8.860;2022-11-13T02:29:20;3.70;;;2.25;;
74920;SDS011;63483;47.384;8.860;2022-11-13T02:31:46;2.80;;;2.47;;
74920;SDS011;63483;47.384;8.860;2022-11-13T02:34:11;3.10;;;2.60;;
74920;SDS011;63483;47.384;8.860;2022-11-13T02:36:36;3.00;;;2.30;;
74920;SDS011;63483;47.384;8.860;2022-11-13T02:39:03;3.20;;;2.40;;
74920;SDS011;63483;47.384;8.860;2022-11-13T02:41:32;4.57;;;2.57;;
74920;SDS011;63483;47.384;8.860;2022-11-13T02:43:57;4.00;;;3.00;;
74920;SDS011;63483;47.384;8.860;2022-11-13T02:46:22;4.13;;;3.07;;
74920;SDS011;63483;47.384;8.860;2022-11-13T02:48:48;3.77;;;2.67;;
74920;SDS011;63483;47.384;8.860;2022-11-13T02:51:13;4.97;;;3.20;;
74920;SDS011;63483;47.384;8.860;2022-11-13T02:53:38;4.23;;;2.90;;
74920;SDS011;63483;47.384;8.860;2022-11-13T02:56:04;4.20;;;3.03;;
74920;SDS011;63483;47.384;8.860;2022-11-13T02:58:30;4.33;;;2.90;;
74920;SDS011;63483;47.384;8.860;2022-11-13T03:00:55;4.30;;;3.10;;
74920;SDS011;63483;47.384;8.860;2022-11-13T03:03:21;4.88;;;3.25;;
74920;SDS011;63483;47.384;8.860;2022-11-13T03:05:47;3.57;;;2.50;;
74920;SDS011;63483;47.384;8.860;2022-11-13T03:08:13;3.92;;;2.67;;
74920;SDS011;63483;47.384;8.860;2022-11-13T03:10:39;3.60;;;2.67;;
74920;SDS011;63483;47.384;8.860;2022-11-13T03:13:04;3.83;;;2.83;;
74920;SDS011;63483;47.384;8.860;2022-11-13T03:15:29;3.87;;;2.80;;
74920;SDS011;63483;47.384;8.860;2022-11-13T03:17:55;3.53;;;2.50;;
74920;SDS011;63483;47.384;8.860;2022-11-13T03:20:20;2.97;;;2.33;;
74920;SDS011;63483;47.384;8.860;2022-11-13T03:22:45;3.97;;;3.27;;
74920;SDS011;63483;47.384;8.860;2022-11-13T03:25:11;3.88;;;3.10;;
74920;SDS011;63483;47.384;8.860;2022-11-13T03:27:36;4.20;;;2.93;;
74920;SDS011;63483;47.384;8.860;2022-11-13T03:30:02;4.20;;;3.03;;
74920;SDS011;63483;47.384;8.860;2022-11-13T03:32:28;5.25;;;3.78;;
74920;SDS011;63483;47.384;8.860;2022-11-13T03:34:53;6.70;;;4.03;;
74920;SDS011;63483;47.384;8.860;2022-11-13T03:37:19;6.60;;;3.93;;
74920;SDS011;63483;47.384;8.860;2022-11-13T03:39:44;5.00;;;3.50;;
74920;SDS011;63483;47.384;8.860;2022-11-13T03:42:09;6.93;;;3.63;;
74920;SDS011;63483;47.384;8.860;2022-11-13T03:44:35;5.17;;;3.50;;
74920;SDS011;63483;47.384;8.860;2022-11-13T03:47:00;4.33;;;2.57;;
74920;SDS011;63483;47.384;8.860;2022-11-13T03:49:25;4.50;;;3.33;;
74920;SDS011;63483;47.384;8.860;2022-11-13T03:51:51;3.87;;;2.70;;
74920;SDS011;63483;47.384;8.860;2022-11-13T03:54:16;3.60;;;2.77;;
74920;SDS011;63483;47.384;8.860;2022-11-13T03:56:42;5.57;;;3.20;;
74920;SDS011;63483;47.384;8.860;2022-11-13T03:59:07;4.03;;;2.80;;
74920;SDS011;63483;47.384;8.860;2022-11-13T04:01:32;4.25;;;2.83;;
74920;SDS011;63483;47.384;8.860;2022-11-13T04:03:58;4.43;;;3.40;;
74920;SDS011;63483;47.384;8.860;2022-11-13T04:06:23;4.47;;;3.00;;
74920;SDS011;63483;47.384;8.860;2022-11-13T04:08:48;4.23;;;2.80;;
74920;SDS011;63483;47.384;8.860;2022-11-13T04:11:14;4.23;;;2.37;;
74920;SDS011;63483;47.384;8.860;2022-11-13T04:13:39;3.87;;;2.90;;
74920;SDS011;63483;47.384;8.860;2022-11-13T04:16:04;5.40;;;2.70;;
74920;SDS011;63483;47.384;8.860;2022-11-13T04:18:30;4.28;;;2.50;;
74920;SDS011;63483;47.384;8.860;2022-11-13T04:21:02;4.23;;;2.40;;
74920;SDS011;63483;47.384;8.860;2022-11-13T04:23:29;3.83;;;2.60;;
74920;SDS011;63483;47.384;8.860;2022-11-13T04:25:55;4.70;;;3.40;;
74920;SDS011;63483;47.384;8.860;2022-11-13T04:28:20;4.43;;;3.10;;
74920;SDS011;63483;47.384;8.860;2022-11-13T04:30:45;4.63;;;2.97;;
74920;SDS011;63483;47.384;8.860;2022-11-13T04:33:11;3.90;;;2.80;;
74920;SDS011;63483;47.384;8.860;2022-11-13T04:35:37;4.15;;;2.92;;
74920;SDS011;63483;47.384;8.860;2022-11-13T04:38:03;3.80;;;2.37;;
74920;SDS011;63483;47.384;8.860;2022-11-13T04:40:28;4.47;;;2.92;;
74920;SDS011;63483;47.384;8.860;2022-11-13T04:42:54;4.33;;;3.00;;
74920;SDS011;63483;47.384;8.860;2022-11-13T04:45:20;4.77;;;3.13;;
74920;SDS011;63483;47.384;8.860;2022-11-13T04:47:47;4.43;;;2.90;;
74920;SDS011;63483;47.384;8.860;2022-11-13T04:50:15;4.03;;;2.70;;
74920;SDS011;63483;47.384;8.860;2022-11-13T04:52:41;3.93;;;2.50;;
74920;SDS011;63483;47.384;8.860;2022-11-13T04:55:07;4.80;;;3.42;;
74920;SDS011;63483;47.384;8.860;2022-11-13T04:57:33;4.13;;;2.88;;
74920;SDS011;63483;47.384;8.860;2022-11-13T04:59:59;4.37;;;3.73;;
74920;SDS011;63483;47.384;8.860;2022-11-13T05:02:25;4.68;;;2.78;;
74920;SDS011;63483;47.384;8.860;2022-11-13T05:04:50;4.00;;;2.90;;
74920;SDS011;63483;47.384;8.860;2022-11-13T05:07:15;4.80;;;3.70;;
74920;SDS011;63483;47.384;8.860;2022-11-13T05:09:41;4.00;;;3.03;;
74920;SDS011;63483;47.384;8.860;2022-11-13T05:12:06;4.77;;;3.37;;
74920;SDS011;63483;47.384;8.860;2022-11-13T05:14:41;4.50;;;2.80;;
74920;SDS011;63483;47.384;8.860;2022-11-13T05:17:07;4.30;;;3.40;;
74920;SDS011;63483;47.384;8.860;2022-11-13T05:19:34;4.95;;;3.28;;
74920;SDS011;63483;47.384;8.860;2022-11-13T05:22:00;4.53;;;3.37;;
74920;SDS011;63483;47.384;8.860;2022-11-13T05:24:25;3.90;;;2.80;;
74920;SDS011;63483;47.384;8.860;2022-11-13T05:26:51;4.43;;;3.40;;
74920;SDS011;63483;47.384;8.860;2022-11-13T05:29:16;3.57;;;2.57;;
74920;SDS011;63483;47.384;8.860;2022-11-13T05:31:42;4.17;;;2.73;;
74920;SDS011;63483;47.384;8.860;2022-11-13T05:34:07;4.55;;;3.03;;
74920;SDS011;63483;47.384;8.860;2022-11-13T05:36:33;3.60;;;2.77;;
74920;SDS011;63483;47.384;8.860;2022-11-13T05:38:58;4.97;;;3.37;;
74920;SDS011;63483;47.384;8.860;2022-11-13T05:41:24;4.20;;;3.07;;
74920;SDS011;63483;47.384;8.860;2022-11-13T05:43:50;3.90;;;3.10;;
74920;SDS011;63483;47.384;8.860;2022-11-13T05:46:22;4.63;;;3.30;;
74920;SDS011;63483;47.384;8.860;2022-11-13T05:48:56;4.03;;;2.80;;
74920;SDS011;63483;47.384;8.860;2022-11-13T05:51:24;4.25;;;2.88;;
74920;SDS011;63483;47.384;8.860;2022-11-13T05:53:51;4.50;;;3.28;;
74920;SDS011;63483;47.384;8.860;2022-11-13T05:56:19;4.72;;;3.35;;
74920;SDS011;63483;47.384;8.860;2022-11-13T05:58:49;5.03;;;3.40;;
74920;SDS011;63483;47.384;8.860;2022-11-13T06:03:46;5.10;;;3.70;;
74920;SDS011;63483;47.384;8.860;2022-11-13T06:06:13;5.60;;;3.60;;
74920;SDS011;63483;47.384;8.860;2022-11-13T06:08:39;6.80;;;4.03;;
74920;SDS011;63483;47.384;8.860;2022-11-13T06:11:06;6.28;;;3.85;;
74920;SDS011;63483;47.384;8.860;2022-11-13T06:13:33;5.23;;;3.50;;
74920;SDS011;63483;47.384;8.860;2022-11-13T06:16:02;5.47;;;3.60;;
74920;SDS011;63483;47.384;8.860;2022-11-13T06:18:32;4.63;;;3.37;;
74920;SDS011;63483;47.384;8.860;2022-11-13T06:21:02;6.05;;;4.32;;
74920;SDS011;63483;47.384;8.860;2022-11-13T06:23:28;5.22;;;3.20;;
74920;SDS011;63483;47.384;8.860;2022-11-13T06:25:59;4.57;;;3.40;;
74920;SDS011;63483;47.384;8.860;2022-11-13T06:28:25;5.53;;;3.15;;
74920;SDS011;63483;47.384;8.860;2022-11-13T06:30:51;5.10;;;3.70;;
74920;SDS011;63483;47.384;8.860;2022-11-13T06:33:16;4.83;;;3.60;;
74920;SDS011;63483;47.384;8.860;2022-11-13T06:35:41;4.83;;;3.40;;
74920;SDS011;63483;47.384;8.860;2022-11-13T06:38:07;4.67;;;3.30;;
74920;SDS011;63483;47.384;8.860;2022-11-13T06:40:32;4.87;;;3.57;;
74920;SDS011;63483;47.384;8.860;2022-11-13T06:42:57;5.03;;;3.37;;
74920;SDS011;63483;47.384;8.860;2022-11-13T06:45:22;4.47;;;3.23;;
74920;SDS011;63483;47.384;8.860;2022-11-13T06:47:48;4.50;;;3.20;;
74920;SDS011;63483;47.384;8.860;2022-11-13T06:50:13;4.30;;;3.40;;
74920;SDS011;63483;47.384;8.860;2022-11-13T06:52:38;5.95;;;3.90;;
74920;SDS011;63483;47.384;8.860;2022-11-13T06:55:04;5.00;;;3.23;;
74920;SDS011;63483;47.384;8.860;2022-11-13T06:57:29;5.13;;;3.67;;
74920;SDS011;63483;47.384;8.860;2022-11-13T06:59:54;4.73;;;3.50;;
74920;SDS011;63483;47.384;8.860;2022-11-13T07:02:20;7.30;;;3.63;;
74920;SDS011;63483;47.384;8.860;2022-11-13T07:04:45;4.73;;;3.33;;
74920;SDS011;63483;47.384;8.860;2022-11-13T07:07:10;5.13;;;3.90;;
74920;SDS011;63483;47.384;8.860;2022-11-13T07:09:36;5.17;;;3.63;;
74920;SDS011;63483;47.384;8.860;2022-11-13T07:12:01;5.13;;;3.27;;
74920;SDS011;63483;47.384;8.860;2022-11-13T07:14:26;4.83;;;3.40;;
74920;SDS011;63483;47.384;8.860;2022-11-13T07:16:52;5.33;;;3.47;;
74920;SDS011;63483;47.384;8.860;2022-11-13T07:19:17;4.30;;;3.47;;
74920;SDS011;63483;47.384;8.860;2022-11-13T07:21:42;4.73;;;3.20;;
74920;SDS011;63483;47.384;8.860;2022-11-13T07:24:07;4.83;;;3.60;;
74920;SDS011;63483;47.384;8.860;2022-11-13T07:26:33;3.83;;;2.93;;
74920;SDS011;63483;47.384;8.860;2022-11-13T07:28:58;4.70;;;3.25;;
74920;SDS011;63483;47.384;8.860;2022-11-13T07:31:23;4.60;;;3.30;;
74920;SDS011;63483;47.384;8.860;2022-11-13T07:33:49;4.63;;;3.53;;
74920;SDS011;63483;47.384;8.860;2022-11-13T07:36:15;4.72;;;3.95;;
74920;SDS011;63483;47.384;8.860;2022-11-13T07:38:41;4.63;;;3.00;;
74920;SDS011;63483;47.384;8.860;2022-11-13T07:41:06;5.00;;;3.20;;
74920;SDS011;63483;47.384;8.860;2022-11-13T07:43:32;5.33;;;3.80;;
74920;SDS011;63483;47.384;8.860;2022-11-13T07:45:58;5.72;;;3.40;;
74920;SDS011;63483;47.384;8.860;2022-11-13T07:48:24;6.45;;;4.32;;
74920;SDS011;63483;47.384;8.860;2022-11-13T07:50:51;6.30;;;4.20;;
74920;SDS011;63483;47.384;8.860;2022-11-13T07:53:17;6.25;;;4.40;;
74920;SDS011;63483;47.384;8.860;2022-11-13T07:55:44;5.10;;;3.70;;
74920;SDS011;63483;47.384;8.860;2022-11-13T07:58:09;4.70;;;3.30;;
74920;SDS011;63483;47.384;8.860;2022-11-13T08:00:35;6.53;;;4.23;;
74920;SDS011;63483;47.384;8.860;2022-11-13T08:03:04;5.67;;;3.50;;
74920;SDS011;63483;47.384;8.860;2022-11-13T08:05:31;4.50;;;3.00;;
74920;SDS011;63483;47.384;8.860;2022-11-13T08:07:57;4.87;;;3.53;;
74920;SDS011;63483;47.384;8.860;2022-11-13T08:10:22;4.87;;;3.50;;
74920;SDS011;63483;47.384;8.860;2022-11-13T08:12:47;6.10;;;3.93;;
74920;SDS011;63483;47.384;8.860;2022-11-13T08:15:13;5.18;;;4.00;;
74920;SDS011;63483;47.384;8.860;2022-11-13T08:17:38;6.23;;;4.00;;
74920;SDS011;63483;47.384;8.860;2022-11-13T08:20:04;4.73;;;3.50;;
74920;SDS011;63483;47.384;8.860;2022-11-13T08:22:31;4.53;;;3.10;;
74920;SDS011;63483;47.384;8.860;2022-11-13T08:24:57;4.47;;;2.97;;
74920;SDS011;63483;47.384;8.860;2022-11-13T08:27:22;4.88;;;3.30;;
74920;SDS011;63483;47.384;8.860;2022-11-13T08:29:48;3.87;;;2.77;;
74920;SDS011;63483;47.384;8.860;2022-11-13T08:32:15;4.70;;;3.13;;
74920;SDS011;63483;47.384;8.860;2022-11-13T08:34:41;4.23;;;2.97;;
74920;SDS011;63483;47.384;8.860;2022-11-13T08:37:07;4.95;;;3.30;;
74920;SDS011;63483;47.384;8.860;2022-11-13T08:39:33;4.47;;;3.10;;
74920;SDS011;63483;47.384;8.860;2022-11-13T08:41:59;5.35;;;3.53;;
74920;SDS011;63483;47.384;8.860;2022-11-13T08:44:28;4.38;;;2.95;;
74920;SDS011;63483;47.384;8.860;2022-11-13T08:46:53;4.03;;;2.90;;
74920;SDS011;63483;47.384;8.860;2022-11-13T08:49:19;3.95;;;2.75;;
74920;SDS011;63483;47.384;8.860;2022-11-13T08:51:44;4.97;;;3.17;;
74920;SDS011;63483;47.384;8.860;2022-11-13T08:54:09;4.90;;;3.40;;
74920;SDS011;63483;47.384;8.860;2022-11-13T08:56:35;5.57;;;3.67;;
74920;SDS011;63483;47.384;8.860;2022-11-13T08:59:00;5.37;;;3.83;;
74920;SDS011;63483;47.384;8.860;2022-11-13T09:01:25;4.60;;;3.17;;
74920;SDS011;63483;47.384;8.860;2022-11-13T09:03:51;4.20;;;2.97;;
74920;SDS011;63483;47.384;8.860;2022-11-13T09:06:16;5.40;;;3.70;;
74920;SDS011;63483;47.384;8.860;2022-11-13T09:08:41;5.68;;;4.00;;
74920;SDS011;63483;47.384;8.860;2022-11-13T09:11:07;4.10;;;3.00;;
74920;SDS011;63483;47.384;8.860;2022-11-13T09:13:32;4.43;;;3.10;;
74920;SDS011;63483;47.384;8.860;2022-11-13T09:15:58;4.57;;;3.35;;
74920;SDS011;63483;47.384;8.860;2022-11-13T09:18:24;5.07;;;3.03;;
74920;SDS011;63483;47.384;8.860;2022-11-13T09:20:49;5.40;;;3.50;;
74920;SDS011;63483;47.384;8.860;2022-11-13T09:23:15;4.85;;;3.00;;
74920;SDS011;63483;47.384;8.860;2022-11-13T09:25:40;6.17;;;4.80;;
74920;SDS011;63483;47.384;8.860;2022-11-13T09:28:06;5.97;;;4.13;;
74920;SDS011;63483;47.384;8.860;2022-11-13T09:30:31;5.53;;;3.90;;
74920;SDS011;63483;47.384;8.860;2022-11-13T09:32:57;4.97;;;3.47;;
74920;SDS011;63483;47.384;8.860;2022-11-13T09:35:24;5.00;;;3.65;;
74920;SDS011;63483;47.384;8.860;2022-11-13T09:38:04;4.38;;;3.28;;
74920;SDS011;63483;47.384;8.860;2022-11-13T09:46:05;5.03;;;3.50;;
74920;SDS011;63483;47.384;8.860;2022-11-13T09:48:41;4.38;;;3.42;;
74920;SDS011;63483;47.384;8.860;2022-11-13T09:51:11;5.60;;;4.13;;
74920;SDS011;63483;47.384;8.860;2022-11-13T09:53:39;5.10;;;3.42;;
74920;SDS011;63483;47.384;8.860;2022-11-13T10:01:32;4.25;;;3.03;;
74920;SDS011;63483;47.384;8.860;2022-11-13T10:03:59;4.10;;;3.08;;
74920;SDS011;63483;47.384;8.860;2022-11-13T10:09:47;5.25;;;3.20;;
74920;SDS011;63483;47.384;8.860;2022-11-13T10:12:21;5.27;;;3.77;;
74920;SDS011;63483;47.384;8.860;2022-11-13T10:14:47;5.55;;;3.85;;
74920;SDS011;63483;47.384;8.860;2022-11-13T10:20:04;6.32;;;4.07;;
74920;SDS011;63483;47.384;8.860;2022-11-13T10:22:38;5.72;;;4.13;;
74920;SDS011;63483;47.384;8.860;2022-11-13T10:25:18;5.97;;;4.20;;
74920;SDS011;63483;47.384;8.860;2022-11-13T10:27:52;6.93;;;4.10;;
74920;SDS011;63483;47.384;8.860;2022-11-13T10:30:20;6.83;;;4.50;;
74920;SDS011;63483;47.384;8.860;2022-11-13T10:32:46;7.05;;;4.68;;
74920;SDS011;63483;47.384;8.860;2022-11-13T10:38:06;8.07;;;5.60;;
74920;SDS011;63483;47.384;8.860;2022-11-13T10:40:36;8.30;;;5.68;;
74920;SDS011;63483;47.384;8.860;2022-11-13T10:43:19;7.78;;;4.78;;
74920;SDS011;63483;47.384;8.860;2022-11-13T10:45:59;8.57;;;5.65;;
74920;SDS011;63483;47.384;8.860;2022-11-13T10:48:31;9.13;;;5.68;;
74920;SDS011;63483;47.384;8.860;2022-11-13T10:51:21;8.60;;;5.43;;
74920;SDS011;63483;47.384;8.860;2022-11-13T10:53:49;9.95;;;6.70;;
74920;SDS011;63483;47.384;8.860;2022-11-13T10:59:00;10.68;;;6.63;;
74920;SDS011;63483;47.384;8.860;2022-11-13T11:01:28;11.82;;;7.10;;
74920;SDS011;63483;47.384;8.860;2022-11-13T11:03:54;12.23;;;7.53;;
74920;SDS011;63483;47.384;8.860;2022-11-13T11:06:19;11.83;;;6.77;;
74920;SDS011;63483;47.384;8.860;2022-11-13T11:09:04;10.45;;;6.72;;
74920;SDS011;63483;47.384;8.860;2022-11-13T11:11:32;10.38;;;6.07;;
74920;SDS011;63483;47.384;8.860;2022-11-13T11:14:25;9.15;;;5.90;;
74920;SDS011;63483;47.384;8.860;2022-11-13T11:16:54;9.30;;;5.45;;
74920;SDS011;63483;47.384;8.860;2022-11-13T11:19:21;23.40;;;7.03;;
74920;SDS011;63483;47.384;8.860;2022-11-13T11:21:52;51.20;;;9.27;;
74920;SDS011;63483;47.384;8.860;2022-11-13T11:24:25;15.48;;;5.55;;
74920;SDS011;63483;47.384;8.860;2022-11-13T11:27:08;7.13;;;4.93;;
74920;SDS011;63483;47.384;8.860;2022-11-13T11:29:40;7.55;;;4.68;;
74920;SDS011;63483;47.384;8.860;2022-11-13T11:35:07;9.27;;;5.60;;
74920;SDS011;63483;47.384;8.860;2022-11-13T11:37:40;9.13;;;5.07;;
74920;SDS011;63483;47.384;8.860;2022-11-13T11:40:21;8.87;;;6.30;;
74920;SDS011;63483;47.384;8.860;2022-11-13T11:42:57;10.52;;;6.10;;
74920;SDS011;63483;47.384;8.860;2022-11-13T11:45:28;8.93;;;6.05;;
74920;SDS011;63483;47.384;8.860;2022-11-13T11:48:17;8.02;;;5.32;;
74920;SDS011;63483;47.384;8.860;2022-11-13T11:59:03;7.80;;;5.10;;
74920;SDS011;63483;47.384;8.860;2022-11-13T12:01:48;8.38;;;5.50;;
74920;SDS011;63483;47.384;8.860;2022-11-13T12:07:00;7.53;;;5.25;;
74920;SDS011;63483;47.384;8.860;2022-11-13T12:09:40;6.83;;;4.50;;
74920;SDS011;63483;47.384;8.860;2022-11-13T12:25:36;8.95;;;5.43;;
74920;SDS011;63483;47.384;8.860;2022-11-13T12:28:10;7.57;;;5.07;;
74920;SDS011;63483;47.384;8.860;2022-11-13T12:33:14;8.82;;;5.80;;
74920;SDS011;63483;47.384;8.860;2022-11-13T12:35:59;8.20;;;5.73;;
74920;SDS011;63483;47.384;8.860;2022-11-13T12:41:12;7.55;;;4.65;;
74920;SDS011;63483;47.384;8.860;2022-11-13T12:46:14;8.30;;;5.38;;
74920;SDS011;63483;47.384;8.860;2022-11-13T12:48:44;8.63;;;5.27;;
74920;SDS011;63483;47.384;8.860;2022-11-13T12:51:15;7.07;;;5.13;;
74920;SDS011;63483;47.384;8.860;2022-11-13T12:53:43;7.40;;;4.78;;
74920;SDS011;63483;47.384;8.860;2022-11-13T12:58:53;6.68;;;4.50;;
74920;SDS011;63483;47.384;8.860;2022-11-13T13:01:21;6.40;;;4.53;;
74920;SDS011;63483;47.384;8.860;2022-11-13T13:11:43;7.03;;;4.72;;
74920;SDS011;63483;47.384;8.860;2022-11-13T13:17:19;5.85;;;4.00;;
74920;SDS011;63483;47.384;8.860;2022-11-13T13:19:55;6.93;;;4.70;;
74920;SDS011;63483;47.384;8.860;2022-11-13T13:22:29;7.65;;;4.57;;
74920;SDS011;63483;47.384;8.860;2022-11-13T13:25:01;7.25;;;5.10;;
74920;SDS011;63483;47.384;8.860;2022-11-13T13:27:31;7.27;;;4.80;;
74920;SDS011;63483;47.384;8.860;2022-11-13T13:30:14;6.45;;;4.50;;
74920;SDS011;63483;47.384;8.860;2022-11-13T13:35:42;7.32;;;4.65;;
74920;SDS011;63483;47.384;8.860;2022-11-13T13:46:26;7.28;;;4.95;;
74920;SDS011;63483;47.384;8.860;2022-11-13T13:48:55;8.32;;;4.65;;
74920;SDS011;63483;47.384;8.860;2022-11-13T13:51:29;7.13;;;4.35;;
74920;SDS011;63483;47.384;8.860;2022-11-13T13:53:58;9.03;;;5.40;;
74920;SDS011;63483;47.384;8.860;2022-11-13T13:56:26;8.02;;;5.40;;
74920;SDS011;63483;47.384;8.860;2022-11-13T13:58:51;7.95;;;5.20;;
74920;SDS011;63483;47.384;8.860;2022-11-13T14:01:30;8.13;;;5.70;;
74920;SDS011;63483;47.384;8.860;2022-11-13T14:04:04;6.80;;;4.65;;
74920;SDS011;63483;47.384;8.860;2022-11-13T14:06:29;8.50;;;5.80;;
74920;SDS011;63483;47.384;8.860;2022-11-13T14:08:55;8.40;;;5.50;;
74920;SDS011;63483;47.384;8.860;2022-11-13T14:11:31;8.05;;;5.72;;
74920;SDS011;63483;47.384;8.860;2022-11-13T14:14:16;8.87;;;5.47;;
74920;SDS011;63483;47.384;8.860;2022-11-13T14:16:46;9.45;;;5.97;;
74920;SDS011;63483;47.384;8.860;2022-11-13T14:19:14;8.82;;;5.80;;
74920;SDS011;63483;47.384;8.860;2022-11-13T14:21:41;11.27;;;6.10;;
74920;SDS011;63483;47.384;8.860;2022-11-13T14:24:11;8.02;;;5.10;;
74920;SDS011;63483;47.384;8.860;2022-11-13T14:26:41;7.68;;;4.85;;
74920;SDS011;63483;47.384;8.860;2022-11-13T14:29:10;6.73;;;4.43;;
74920;SDS011;63483;47.384;8.860;2022-11-13T14:31:45;7.63;;;5.07;;
74920;SDS011;63483;47.384;8.860;2022-11-13T14:34:13;7.87;;;5.23;;
74920;SDS011;63483;47.384;8.860;2022-11-13T14:36:41;7.28;;;5.25;;
74920;SDS011;63483;47.384;8.860;2022-11-13T14:39:12;6.83;;;4.00;;
74920;SDS011;63483;47.384;8.860;2022-11-13T14:41:49;7.03;;;4.70;;
74920;SDS011;63483;47.384;8.860;2022-11-13T14:44:50;7.32;;;4.47;;
74920;SDS011;63483;47.384;8.860;2022-11-13T14:47:25;6.55;;;4.15;;
74920;SDS011;63483;47.384;8.860;2022-11-13T14:49:53;7.60;;;4.77;;
74920;SDS011;63483;47.384;8.860;2022-11-13T14:52:26;8.00;;;5.13;;
74920;SDS011;63483;47.384;8.860;2022-11-13T14:55:05;13.18;;;5.65;;
74920;SDS011;63483;47.384;8.860;2022-11-13T14:57:32;12.57;;;5.55;;
74920;SDS011;63483;47.384;8.860;2022-11-13T15:00:08;10.13;;;6.60;;
74920;SDS011;63483;47.384;8.860;2022-11-13T15:02:40;9.18;;;6.15;;
74920;SDS011;63483;47.384;8.860;2022-11-13T15:05:06;9.20;;;5.87;;
74920;SDS011;63483;47.384;8.860;2022-11-13T15:07:36;8.43;;;5.70;;
74920;SDS011;63483;47.384;8.860;2022-11-13T15:10:05;7.50;;;4.70;;
74920;SDS011;63483;47.384;8.860;2022-11-13T15:12:33;6.88;;;5.03;;
74920;SDS011;63483;47.384;8.860;2022-11-13T15:14:58;8.10;;;5.63;;
74920;SDS011;63483;47.384;8.860;2022-11-13T15:17:24;8.50;;;5.43;;
74920;SDS011;63483;47.384;8.860;2022-11-13T15:19:52;7.60;;;5.25;;
74920;SDS011;63483;47.384;8.860;2022-11-13T15:22:18;8.67;;;5.63;;
74920;SDS011;63483;47.384;8.860;2022-11-13T15:24:44;7.95;;;5.60;;
74920;SDS011;63483;47.384;8.860;2022-11-13T15:27:14;6.70;;;4.90;;
74920;SDS011;63483;47.384;8.860;2022-11-13T15:29:40;6.60;;;4.55;;
74920;SDS011;63483;47.384;8.860;2022-11-13T15:32:15;8.40;;;5.70;;
74920;SDS011;63483;47.384;8.860;2022-11-13T15:34:40;7.22;;;5.15;;
74920;SDS011;63483;47.384;8.860;2022-11-13T15:37:09;6.30;;;4.57;;
74920;SDS011;63483;47.384;8.860;2022-11-13T15:39:39;6.67;;;5.07;;
74920;SDS011;63483;47.384;8.860;2022-11-13T15:42:06;6.80;;;5.00;;
74920;SDS011;63483;47.384;8.860;2022-11-13T15:44:36;7.30;;;5.10;;
74920;SDS011;63483;47.384;8.860;2022-11-13T15:47:01;6.60;;;4.63;;
74920;SDS011;63483;47.384;8.860;2022-11-13T15:49:26;8.13;;;5.20;;
74920;SDS011;63483;47.384;8.860;2022-11-13T15:51:52;7.07;;;4.75;;
74920;SDS011;63483;47.384;8.860;2022-11-13T15:54:24;8.10;;;5.63;;
74920;SDS011;63483;47.384;8.860;2022-11-13T15:56:53;7.60;;;4.60;;
74920;SDS011;63483;47.384;8.860;2022-11-13T15:59:18;7.47;;;5.03;;
74920;SDS011;63483;47.384;8.860;2022-11-13T16:01:44;7.37;;;4.37;;
74920;SDS011;63483;47.384;8.860;2022-11-13T16:04:10;7.80;;;5.50;;
74920;SDS011;63483;47.384;8.860;2022-11-13T16:06:38;7.10;;;4.75;;
74920;SDS011;63483;47.384;8.860;2022-11-13T16:09:04;7.90;;;5.27;;
74920;SDS011;63483;47.384;8.860;2022-11-13T16:11:30;6.97;;;4.70;;
74920;SDS011;63483;47.384;8.860;2022-11-13T16:13:58;7.55;;;5.13;;
74920;SDS011;63483;47.384;8.860;2022-11-13T16:18:49;8.63;;;5.57;;
74920;SDS011;63483;47.384;8.860;2022-11-13T16:21:15;8.43;;;6.40;;
74920;SDS011;63483;47.384;8.860;2022-11-13T16:23:42;8.05;;;5.60;;
74920;SDS011;63483;47.384;8.860;2022-11-13T16:26:10;9.27;;;6.53;;
74920;SDS011;63483;47.384;8.860;2022-11-13T16:28:38;7.55;;;5.32;;